Matej Livaja

Chefscout - NK Osijek
25 Nov 2027
Donnerstag
Verarbeitung

Persönlichkeit

Anpassungsfähigkeit (15) Ehrgeiz (16) Kontroverse (1) Loyalität (12) Druck (1) Professionalität (7) Fairness (3) Temperament (18)

Profil

Trainerstil Demokratisch
Lizenz Kontinentale B
Entschlossenheit 7
Menschenführung 7
Motivation 9
Disziplin 8
Arbeitszufriedenheit
98%
Ermüdung
0%
Rolle Chefscout
Gehalt 69.6K p/W
Vertrag 14.03.2028

Leistung

Verhalten Gut
Trainingseffektivität
40%
Spielerentwicklung
25%
Verletzungsprävention
50%
Taktische Umsetzung
60%

Letzte Ereignisse

Nahm an einer Scouting-Besprechung teil jetzt
Nahm an einer Scouting-Besprechung teil jetzt
Nahm an einer Scouting-Besprechung teil 7T her
Nahm an einer Scouting-Besprechung teil 7T her
Nahm an einer Scouting-Besprechung teil 7T her
Nahm an einer Scouting-Besprechung teil 7T her
Nahm an einer Scouting-Besprechung teil 14T her
Nahm an einer Scouting-Besprechung teil 14T her

Aktuell beobachtet

136
Spieler Verein Status Fähigkeit Vertrauen Beobachtet Zuletzt beobachtet Letzte Stimme
Louis Munteanu DC United Aktiv 113 / 140 40% 4 16.08.2027 -
Matteo Rover Reggiana Aktiv 127 / 114 40% 1 16.08.2027 -
Matías Gómez Granada Aktiv 119 / 121 40% 2 26.07.2027 -
Araphat Mohammed Berekum Chelsea Verhandlung 120 / 120 40% 1 26.07.2027 -
Sascha Britschgi Padova Aktiv 113 / 134 40% 1 15.07.2027 -
Paulo Iago Sporting CP Aktiv 108 / 110 40% 1 14.07.2027 -
Paulo Cardoso Sporting CP Aktiv 91 / 97 40% 1 06.07.2027 -
Daniel Kelly Oxford United Aktiv 105 / 122 40% 1 06.07.2027 -
Ronan Hale Gillingham Aktiv 120 / 113 40% 1 31.05.2027 -
Juan Mosquera Sheffield Wednesday Aktiv 129 / 118 40% 4 30.05.2027 -
Leif Davis Ipswich Town Aktiv 135 / 135 40% 1 30.05.2027 -
Bosun Lawal Stoke City Aktiv 128 / 135 40% 3 29.05.2027 -
Juan Giménez Celta Aktiv 122 / 129 40% 1 29.05.2027 -
Jack Currie Oxford United Aktiv 133 / 118 40% 1 29.05.2027 -
Welington Southampton Aktiv 126 / 128 40% 5 28.05.2027 -
Guille Rosas Gijón Aktiv 145 / 133 40% 1 28.05.2027 -
Harvey White Stevenage Aktiv 107 / 118 40% 2 26.05.2027 -
Gonçalo Oliveira Benfica Aktiv 99 / 114 40% 1 26.05.2027 -
Derry Murkin Derby County Aktiv 130 / 122 40% 1 26.05.2027 -
Callum Doyle Wrexham Aktiv 136 / 131 40% 7 25.05.2027 -
Milan van Ewijk Mansfield Town Aktiv 140 / 132 40% 1 24.05.2027 -
Charlie Webster Burton Albion Aktiv 105 / 107 40% 1 22.05.2027 -
Zak Swanson Bradford City Aktiv 115 / 114 40% 3 20.05.2027 -
Max Bird Birmingham Aktiv 126 / 132 40% 6 20.05.2027 -
Lewis Bate Stockport County Aktiv 123 / 114 40% 2 19.05.2027 -
Andrei Coubiş Lincoln City Aktiv 125 / 109 40% 3 18.05.2027 -
Caolan Boyd-Munce Wycombe Wanderers Aktiv 115 / 127 40% 2 17.05.2027 -
Teden Mengi Luton Town Aktiv 115 / 129 40% 3 17.05.2027 -
Jacob Greaves Ipswich Town Aktiv 142 / 134 40% 3 16.05.2027 -
Di'Shon Bernard Sheffield Wednesday Aktiv 113 / 114 40% 1 15.05.2027 -
Harry Clarke Preston Aktiv 133 / 132 40% 3 14.05.2027 -
Ethan Pye Stockport County Aktiv 111 / 124 40% 2 14.05.2027 -
Brian De Keersmaecker Oxford United Aktiv 135 / 127 40% 2 13.05.2027 -
Adam Randell Bristol City Aktiv 131 / 137 40% 1 13.05.2027 -
Mpho Khethang AS Police Aktiv 65 / 102 40% 1 12.05.2027 -
Georgie Gent Barnsley Aktiv 116 / 120 40% 2 11.05.2027 -
Christ Inao Oulaï Fiorentina Aktiv 145 / 134 40% 2 07.05.2027 -
Riley Owen Trento Aktiv 97 / 114 40% 2 06.05.2027 -
Keagan Tau Ajax Cape Town Aktiv 83 / 92 40% 1 06.05.2027 -
Nicolas Madsen Queens Park Rangers Aktiv 120 / 130 40% 2 04.05.2027 -
Pelle Mattsson Norwich City Aktiv 120 / 128 40% 1 04.05.2027 -
Jacques Ekomié Wrexham Aktiv 122 / 126 40% 4 03.05.2027 -
Bobby Thomas Coventry City Aktiv 130 / 140 40% 1 02.05.2027 -
Jan Bürger Gillingham Aktiv 100 / 115 40% 3 29.04.2027 -
Kellen Fisher Norwich City Aktiv 131 / 118 40% 4 27.04.2027 -
Christos Mouzakitis Hull City Aktiv 142 / 143 40% 1 27.04.2027 -
Leandro Martins Benfica Aktiv 89 / 103 40% 1 27.04.2027 -
Florentino Luís Ipswich Town Aktiv 136 / 139 40% 1 25.04.2027 -
Williams Manyama SuperSport United Aktiv 117 / 108 40% 4 23.04.2027 -
Davide Bartesaghi AC Milan Aktiv 138 / 135 40% 1 23.04.2027 -
Andre Dozzell Doncaster Rovers Aktiv 129 / 124 40% 1 21.04.2027 -
Ethan Galbraith Swansea City Aktiv 128 / 140 40% 3 19.04.2027 -
Christian Krasnodar Aktiv 129 / 137 40% 2 18.04.2027 -
Shea Charles Southampton Aktiv 127 / 137 40% 2 18.04.2027 -
James Morris Leyton Orient Aktiv 118 / 114 40% 1 17.04.2027 -
Luke McNally Bristol City Aktiv 138 / 121 40% 2 15.04.2027 -
Andrea Carboni Monza Aktiv 123 / 131 40% 1 14.04.2027 -
Dylan Lawlor Cardiff City Aktiv 111 / 111 40% 1 14.04.2027 -
Imrân Louza Watford Aktiv 144 / 127 40% 3 10.04.2027 -
Toby Collyer West Bromwich Albion Aktiv 130 / 127 40% 3 09.04.2027 -
Josh Tymon Swansea City Aktiv 120 / 119 40% 1 09.04.2027 -
Darlin Yongwa Norwich City Aktiv 119 / 129 40% 1 02.04.2027 -
Brodie Spencer Oxford United Aktiv 121 / 116 40% 1 02.04.2027 -
Oliver Skipp Leicester City Aktiv 130 / 124 40% 1 01.04.2027 -
Bali Mumba Huddersfield Town Aktiv 104 / 119 40% 1 31.03.2027 -
Aidan Morris Middlesbrough Aktiv 120 / 128 40% 1 29.03.2027 -
Alfie Doughty Millwall Aktiv 126 / 132 40% 1 13.03.2027 -
Tomás Ribeiro Cultural Leonesa Aktiv 122 / 119 40% 1 05.03.2027 -
Guillem Molina Huesca Aktiv 103 / 100 40% 1 03.03.2027 -
Andrey Langovich Rostov Aktiv 111 / 113 40% 1 01.03.2027 -
Nadir Zortea Bologna Aktiv 130 / 134 40% 1 18.01.2027 -
Ruben van Bommel Ferencvaros Aktiv 124 / 140 40% 5 01.01.2027 -
Leandro Godoy CSKA Sofia Aktiv 117 / 112 40% 2 01.01.2027 -
Brayan León Mamelodi Sundowns Aktiv 121 / 100 40% 4 28.12.2026 -
Moussa Dembélé CR Belouizdad Verloren 118 / 124 40% 2 24.12.2026 -
Everton Bala Levski Aktiv 137 / 125 40% 5 23.12.2026 Beobachten
Tedi Cara LNZ Aktiv 105 / 103 40% 1 23.12.2026 -
Ammar Ramadan DAC Dunajska Streda Aktiv 114 / 125 40% 5 20.12.2026 -
Agustín Módica Gimnasia y Esgrima Aktiv 127 / 112 40% 1 19.12.2026 -
Nicolás Cordero Aldosivi Aktiv 117 / 119 40% 2 17.12.2026 -
John Okoye Ebuka Ittihad Aktiv 103 / 110 40% 1 16.12.2026 -
Aidomo Emakhu Oxford United Aktiv 114 / 122 40% 1 16.12.2026 -
Lewis Morgan SuperSport United Aktiv 128 / 121 40% 6 15.12.2026 -
Ramiro Ruiz Rodríguez Atlético Tucumán Aktiv 118 / 128 40% 1 15.12.2026 -
Michele Šego Hajduk Split Aktiv 126 / 123 40% 6 14.12.2026 Beobachten
Patrik Mijić HNK Gorica Aktiv 125 / 109 40% 2 14.12.2026 -
Enzo Copetti Rosario Central Aktiv 139 / 119 40% 1 12.12.2026 -
Breel Embolo Atlanta United FC Aktiv 144 / 136 40% 3 08.12.2026 Beobachten
Luka Kurtovic NK Domzale Verloren 140 / 123 40% 5 07.12.2026 Beobachten
Ante Matej Jurić Lokomotiva Zagreb Aktiv 106 / 120 40% 1 07.12.2026 -
Jacques Siwe Rubin Aktiv 125 / 109 40% 3 05.12.2026 -
Rodrigo Bogarín Barracas Central Aktiv 122 / 127 40% 1 05.12.2026 -
Ivan Sergeev Dinamo Moscow Aktiv 131 / 118 40% 1 03.12.2026 -
Alexander Díaz Deportivo Riestra Aktiv 135 / 103 40% 1 02.12.2026 -
Nathan Ordaz Metalist Aktiv 120 / 122 40% 1 02.12.2026 -
Berna CSKA 1948 Aktiv 110 / 114 40% 1 29.11.2026 -
Evidence Makgopa Orlando Pirates Aktiv 133 / 126 40% 1 28.11.2026 -
Bruno Zdunić Dugopolje Verloren 98 / 102 40% 1 27.11.2026 -
Vinko Rozić Istra 1961 Aktiv 106 / 108 40% 3 24.11.2026 -
Kwame Opoku Asante Kotoko Aktiv 87 / 87 40% 1 24.11.2026 -
Iuri Tavares NK Varazdin Aktiv 123 / 120 40% 1 23.11.2026 -
Tio Cipot NK Maribor Aktiv 122 / 113 40% 1 18.11.2026 -
Themba Ngcobo SuperSport United Aktiv 130 / 125 40% 2 16.11.2026 -
Leonardo Campana New England Revolution Aktiv 144 / 141 40% 2 12.11.2026 -
Ola Brynhildsen Bodo/Glimt Aktiv 121 / 117 40% 1 12.11.2026 -
Nicolás Contín MFK Ruzomberok Aktiv 102 / 109 40% 1 10.11.2026 -
Rafael Navarro St. Louis CITY SC Aktiv 111 / 123 40% 4 07.11.2026 -
Andreas Gruber DAC Dunajska Streda Aktiv 117 / 110 40% 1 07.11.2026 -
Assad Al Hamlawi Universitatea Craiova Aktiv 115 / 117 40% 1 04.11.2026 -
Daniel Karlsbakk Sarpsborg 08 Aktiv 129 / 136 40% 1 02.11.2026 -
Wessam Abou Ali Columbus Crew Aktiv 118 / 120 40% 3 31.10.2026 -
Tomás Chancalay Minnesota United FC Aktiv 128 / 128 40% 1 29.10.2026 -
Kévin Denkey FC Cincinnati Aktiv 110 / 131 40% 3 27.10.2026 -
Jesus Ferreira Seattle Sounders Aktiv 132 / 134 40% 2 27.10.2026 -
Róbert Polievka MTK Budapest Aktiv 116 / 109 40% 1 25.10.2026 -
Gabriel Jesus Barcelona Aktiv 152 / 151 40% 5 24.10.2026 -
Bénie Traoré New York City Aktiv 139 / 110 40% 3 23.10.2026 -
Alonso Martínez New York City Aktiv 124 / 117 40% 1 21.10.2026 -
Jordan Morris Seattle Sounders Aktiv 134 / 119 40% 2 17.10.2026 -
Razvan Balasa Crvena Zvezda Aktiv 148 / 140 40% 3 16.10.2026 -
Kein Sato FC Tokyo Aktiv 111 / 117 40% 1 11.10.2026 -
João Klauss LA Galaxy Aktiv 143 / 133 40% 2 10.10.2026 -
Tomás González Piast Aktiv 126 / 120 40% 1 09.10.2026 -
Andreas Helmersen Bodo/Glimt Aktiv 120 / 112 40% 1 06.10.2026 -
Sam Surridge Nashville SC Aktiv 152 / 125 40% 3 05.10.2026 -
Morgan Guilavogui Real Salt Lake Aktiv 115 / 115 40% 2 01.10.2026 -
Theo Corbeanu Toronto FC Aktiv 124 / 110 40% 1 28.09.2026 -
Jeong Sang-Bin St. Louis CITY SC Aktiv 113 / 121 40% 1 19.09.2026 -
Kevin Kelsy Portland Timbers Aktiv 108 / 112 40% 1 19.09.2026 -
Ibrahim Aliyu Houston Dynamo Aktiv 114 / 116 40% 1 16.09.2026 -
Marcus Ingvartsen San Diego Football Club Aktiv 143 / 112 40% 1 14.09.2026 -
Mateusz Bogusz Houston Dynamo Aktiv 140 / 134 40% 1 10.09.2026 -
Leo Ceara Kashima Antlers Aktiv 140 / 119 40% 1 08.09.2026 -
Josh Sargent Toronto FC Aktiv 144 / 134 40% 1 08.09.2026 -
Emmanuel Sabbi Vancouver Whitecaps Aktiv 135 / 106 40% 1 02.09.2026 -
Justo Giani Universidad Catolica Aktiv 100 / 130 40% 1 01.08.2026 -